sensor_id;sensor_type;location;lat;lon;timestamp;P1;durP1;ratioP1;P2;durP2;ratioP2
58842;SDS011;44614;54.356;10.100;2023-04-07T00:00:13;11.60;;;6.47;;
58842;SDS011;44614;54.356;10.100;2023-04-07T00:02:40;12.82;;;6.30;;
58842;SDS011;44614;54.356;10.100;2023-04-07T00:05:06;12.43;;;7.43;;
58842;SDS011;44614;54.356;10.100;2023-04-07T00:07:31;11.18;;;6.22;;
58842;SDS011;44614;54.356;10.100;2023-04-07T00:09:57;10.03;;;5.93;;
58842;SDS011;44614;54.356;10.100;2023-04-07T00:12:22;12.83;;;6.90;;
58842;SDS011;44614;54.356;10.100;2023-04-07T00:14:47;12.80;;;6.70;;
58842;SDS011;44614;54.356;10.100;2023-04-07T00:17:13;11.97;;;6.20;;
58842;SDS011;44614;54.356;10.100;2023-04-07T00:19:38;14.70;;;6.80;;
58842;SDS011;44614;54.356;10.100;2023-04-07T00:22:03;14.43;;;7.37;;
58842;SDS011;44614;54.356;10.100;2023-04-07T00:24:28;13.57;;;5.97;;
58842;SDS011;44614;54.356;10.100;2023-04-07T00:26:54;15.65;;;6.43;;
58842;SDS011;44614;54.356;10.100;2023-04-07T00:29:20;13.70;;;6.53;;
58842;SDS011;44614;54.356;10.100;2023-04-07T00:31:46;14.30;;;6.50;;
58842;SDS011;44614;54.356;10.100;2023-04-07T00:34:11;11.80;;;5.70;;
58842;SDS011;44614;54.356;10.100;2023-04-07T00:36:36;13.03;;;5.77;;
58842;SDS011;44614;54.356;10.100;2023-04-07T00:39:02;13.98;;;6.00;;
58842;SDS011;44614;54.356;10.100;2023-04-07T00:41:27;13.10;;;6.00;;
58842;SDS011;44614;54.356;10.100;2023-04-07T00:43:52;10.50;;;5.77;;
58842;SDS011;44614;54.356;10.100;2023-04-07T00:46:18;9.98;;;5.30;;
58842;SDS011;44614;54.356;10.100;2023-04-07T00:48:47;9.75;;;5.65;;
58842;SDS011;44614;54.356;10.100;2023-04-07T00:51:12;12.40;;;5.82;;
58842;SDS011;44614;54.356;10.100;2023-04-07T00:53:39;12.10;;;6.20;;
58842;SDS011;44614;54.356;10.100;2023-04-07T00:56:04;10.38;;;5.10;;
58842;SDS011;44614;54.356;10.100;2023-04-07T00:58:30;14.32;;;5.35;;
58842;SDS011;44614;54.356;10.100;2023-04-07T01:00:58;9.47;;;5.80;;
58842;SDS011;44614;54.356;10.100;2023-04-07T01:03:35;8.88;;;5.47;;
58842;SDS011;44614;54.356;10.100;2023-04-07T01:06:09;9.82;;;6.32;;
58842;SDS011;44614;54.356;10.100;2023-04-07T01:11:27;8.15;;;4.38;;
58842;SDS011;44614;54.356;10.100;2023-04-07T01:14:00;9.57;;;4.75;;
58842;SDS011;44614;54.356;10.100;2023-04-07T01:22:07;8.07;;;3.80;;
58842;SDS011;44614;54.356;10.100;2023-04-07T01:30:09;6.00;;;4.03;;
58842;SDS011;44614;54.356;10.100;2023-04-07T01:32:36;7.97;;;4.75;;
58842;SDS011;44614;54.356;10.100;2023-04-07T01:35:04;8.10;;;4.68;;
58842;SDS011;44614;54.356;10.100;2023-04-07T01:37:34;8.98;;;4.22;;
58842;SDS011;44614;54.356;10.100;2023-04-07T01:40:02;9.00;;;4.00;;
58842;SDS011;44614;54.356;10.100;2023-04-07T01:42:29;7.65;;;4.20;;
58842;SDS011;44614;54.356;10.100;2023-04-07T01:44:55;9.65;;;4.72;;
58842;SDS011;44614;54.356;10.100;2023-04-07T01:47:22;6.13;;;4.40;;
58842;SDS011;44614;54.356;10.100;2023-04-07T01:49:47;7.35;;;3.92;;
58842;SDS011;44614;54.356;10.100;2023-04-07T01:52:14;7.57;;;4.20;;
58842;SDS011;44614;54.356;10.100;2023-04-07T01:54:41;6.80;;;3.97;;
58842;SDS011;44614;54.356;10.100;2023-04-07T01:57:07;11.00;;;5.55;;
58842;SDS011;44614;54.356;10.100;2023-04-07T01:59:32;5.60;;;3.67;;
58842;SDS011;44614;54.356;10.100;2023-04-07T02:01:58;6.78;;;4.00;;
58842;SDS011;44614;54.356;10.100;2023-04-07T02:04:36;10.23;;;4.23;;
58842;SDS011;44614;54.356;10.100;2023-04-07T02:07:13;6.43;;;3.75;;
58842;SDS011;44614;54.356;10.100;2023-04-07T02:09:44;7.07;;;4.20;;
58842;SDS011;44614;54.356;10.100;2023-04-07T02:12:12;8.50;;;3.70;;
58842;SDS011;44614;54.356;10.100;2023-04-07T02:14:39;8.63;;;4.55;;
58842;SDS011;44614;54.356;10.100;2023-04-07T02:17:06;8.95;;;3.97;;
58842;SDS011;44614;54.356;10.100;2023-04-07T02:19:33;13.85;;;4.15;;
58842;SDS011;44614;54.356;10.100;2023-04-07T02:22:01;6.65;;;4.50;;
58842;SDS011;44614;54.356;10.100;2023-04-07T02:24:27;7.97;;;3.97;;
58842;SDS011;44614;54.356;10.100;2023-04-07T02:26:53;8.45;;;4.53;;
58842;SDS011;44614;54.356;10.100;2023-04-07T02:29:18;8.02;;;3.75;;
58842;SDS011;44614;54.356;10.100;2023-04-07T02:31:43;5.10;;;3.37;;
58842;SDS011;44614;54.356;10.100;2023-04-07T02:34:09;6.93;;;3.35;;
58842;SDS011;44614;54.356;10.100;2023-04-07T02:36:34;5.05;;;3.28;;
58842;SDS011;44614;54.356;10.100;2023-04-07T02:38:59;7.43;;;3.43;;
58842;SDS011;44614;54.356;10.100;2023-04-07T02:41:25;7.68;;;3.50;;
58842;SDS011;44614;54.356;10.100;2023-04-07T02:43:50;6.47;;;4.23;;
58842;SDS011;44614;54.356;10.100;2023-04-07T02:46:15;7.63;;;3.80;;
58842;SDS011;44614;54.356;10.100;2023-04-07T02:48:41;7.22;;;3.88;;
58842;SDS011;44614;54.356;10.100;2023-04-07T02:51:06;7.77;;;4.00;;
58842;SDS011;44614;54.356;10.100;2023-04-07T02:53:31;6.82;;;3.83;;
58842;SDS011;44614;54.356;10.100;2023-04-07T02:55:57;7.63;;;4.53;;
58842;SDS011;44614;54.356;10.100;2023-04-07T02:58:22;8.20;;;4.53;;
58842;SDS011;44614;54.356;10.100;2023-04-07T03:00:48;9.98;;;3.72;;
58842;SDS011;44614;54.356;10.100;2023-04-07T03:03:13;8.07;;;3.97;;
58842;SDS011;44614;54.356;10.100;2023-04-07T03:05:39;7.25;;;4.13;;
58842;SDS011;44614;54.356;10.100;2023-04-07T03:08:04;8.00;;;3.75;;
58842;SDS011;44614;54.356;10.100;2023-04-07T03:10:29;7.57;;;4.20;;
58842;SDS011;44614;54.356;10.100;2023-04-07T03:12:55;8.82;;;4.10;;
58842;SDS011;44614;54.356;10.100;2023-04-07T03:15:21;7.05;;;3.78;;
58842;SDS011;44614;54.356;10.100;2023-04-07T03:17:46;12.02;;;3.83;;
58842;SDS011;44614;54.356;10.100;2023-04-07T03:20:12;8.88;;;4.10;;
58842;SDS011;44614;54.356;10.100;2023-04-07T03:22:37;9.68;;;5.20;;
58842;SDS011;44614;54.356;10.100;2023-04-07T03:25:03;7.65;;;4.00;;
58842;SDS011;44614;54.356;10.100;2023-04-07T03:27:28;10.88;;;5.10;;
58842;SDS011;44614;54.356;10.100;2023-04-07T03:29:54;7.20;;;4.25;;
58842;SDS011;44614;54.356;10.100;2023-04-07T03:32:20;8.18;;;4.15;;
58842;SDS011;44614;54.356;10.100;2023-04-07T03:34:45;9.20;;;4.60;;
58842;SDS011;44614;54.356;10.100;2023-04-07T03:37:10;10.63;;;5.00;;
58842;SDS011;44614;54.356;10.100;2023-04-07T03:39:36;6.20;;;3.97;;
58842;SDS011;44614;54.356;10.100;2023-04-07T03:42:01;10.55;;;5.72;;
58842;SDS011;44614;54.356;10.100;2023-04-07T03:44:27;8.70;;;4.90;;
58842;SDS011;44614;54.356;10.100;2023-04-07T03:46:53;7.03;;;4.28;;
58842;SDS011;44614;54.356;10.100;2023-04-07T03:49:18;11.55;;;5.53;;
58842;SDS011;44614;54.356;10.100;2023-04-07T03:51:44;8.95;;;5.13;;
58842;SDS011;44614;54.356;10.100;2023-04-07T03:54:09;10.18;;;6.07;;
58842;SDS011;44614;54.356;10.100;2023-04-07T03:56:35;14.38;;;4.85;;
58842;SDS011;44614;54.356;10.100;2023-04-07T03:59:01;10.67;;;5.57;;
58842;SDS011;44614;54.356;10.100;2023-04-07T04:01:26;9.25;;;5.40;;
58842;SDS011;44614;54.356;10.100;2023-04-07T04:03:52;10.38;;;5.57;;
58842;SDS011;44614;54.356;10.100;2023-04-07T04:06:17;9.40;;;5.20;;
58842;SDS011;44614;54.356;10.100;2023-04-07T04:08:42;7.78;;;4.95;;
58842;SDS011;44614;54.356;10.100;2023-04-07T04:11:08;8.30;;;4.57;;
58842;SDS011;44614;54.356;10.100;2023-04-07T04:13:33;6.80;;;4.78;;
58842;SDS011;44614;54.356;10.100;2023-04-07T04:15:58;8.90;;;5.10;;
58842;SDS011;44614;54.356;10.100;2023-04-07T04:18:24;8.00;;;5.40;;
58842;SDS011;44614;54.356;10.100;2023-04-07T04:20:49;10.48;;;6.90;;
58842;SDS011;44614;54.356;10.100;2023-04-07T04:23:14;11.00;;;6.22;;
58842;SDS011;44614;54.356;10.100;2023-04-07T04:25:40;10.18;;;5.80;;
58842;SDS011;44614;54.356;10.100;2023-04-07T04:28:05;7.95;;;5.10;;
58842;SDS011;44614;54.356;10.100;2023-04-07T04:30:31;12.05;;;5.15;;
58842;SDS011;44614;54.356;10.100;2023-04-07T04:32:56;10.23;;;4.90;;
58842;SDS011;44614;54.356;10.100;2023-04-07T04:35:21;11.05;;;6.32;;
58842;SDS011;44614;54.356;10.100;2023-04-07T04:37:47;7.97;;;5.95;;
58842;SDS011;44614;54.356;10.100;2023-04-07T04:40:12;10.10;;;5.97;;
58842;SDS011;44614;54.356;10.100;2023-04-07T04:42:38;12.52;;;5.80;;
58842;SDS011;44614;54.356;10.100;2023-04-07T04:45:04;11.65;;;5.72;;
58842;SDS011;44614;54.356;10.100;2023-04-07T04:47:30;9.50;;;6.60;;
58842;SDS011;44614;54.356;10.100;2023-04-07T04:49:55;11.57;;;6.30;;
58842;SDS011;44614;54.356;10.100;2023-04-07T04:52:20;11.32;;;6.60;;
58842;SDS011;44614;54.356;10.100;2023-04-07T04:54:46;10.70;;;6.53;;
58842;SDS011;44614;54.356;10.100;2023-04-07T04:57:11;11.05;;;6.13;;
58842;SDS011;44614;54.356;10.100;2023-04-07T04:59:36;12.55;;;7.93;;
58842;SDS011;44614;54.356;10.100;2023-04-07T05:02:03;12.73;;;7.28;;
58842;SDS011;44614;54.356;10.100;2023-04-07T05:04:29;12.32;;;6.88;;
58842;SDS011;44614;54.356;10.100;2023-04-07T05:06:54;9.48;;;6.43;;
58842;SDS011;44614;54.356;10.100;2023-04-07T05:09:20;14.30;;;7.28;;
58842;SDS011;44614;54.356;10.100;2023-04-07T05:11:45;11.02;;;7.38;;
58842;SDS011;44614;54.356;10.100;2023-04-07T05:14:11;13.82;;;7.03;;
58842;SDS011;44614;54.356;10.100;2023-04-07T05:16:36;13.73;;;7.45;;
58842;SDS011;44614;54.356;10.100;2023-04-07T05:19:01;13.70;;;7.72;;
58842;SDS011;44614;54.356;10.100;2023-04-07T05:21:27;15.25;;;6.50;;
58842;SDS011;44614;54.356;10.100;2023-04-07T05:23:52;14.07;;;6.87;;
58842;SDS011;44614;54.356;10.100;2023-04-07T05:26:18;17.13;;;7.43;;
58842;SDS011;44614;54.356;10.100;2023-04-07T05:28:43;14.75;;;8.48;;
58842;SDS011;44614;54.356;10.100;2023-04-07T05:31:08;16.30;;;7.82;;
58842;SDS011;44614;54.356;10.100;2023-04-07T05:33:34;13.07;;;7.60;;
58842;SDS011;44614;54.356;10.100;2023-04-07T05:36:00;13.63;;;7.55;;
58842;SDS011;44614;54.356;10.100;2023-04-07T05:38:25;13.43;;;8.20;;
58842;SDS011;44614;54.356;10.100;2023-04-07T05:40:50;21.27;;;8.43;;
58842;SDS011;44614;54.356;10.100;2023-04-07T05:43:16;16.15;;;7.10;;
58842;SDS011;44614;54.356;10.100;2023-04-07T05:45:41;13.13;;;6.73;;
58842;SDS011;44614;54.356;10.100;2023-04-07T05:48:06;17.00;;;7.80;;
58842;SDS011;44614;54.356;10.100;2023-04-07T05:50:31;13.45;;;7.72;;
58842;SDS011;44614;54.356;10.100;2023-04-07T05:52:57;11.65;;;7.07;;
58842;SDS011;44614;54.356;10.100;2023-04-07T05:55:22;15.45;;;7.57;;
58842;SDS011;44614;54.356;10.100;2023-04-07T05:57:47;14.60;;;7.70;;
58842;SDS011;44614;54.356;10.100;2023-04-07T06:00:13;16.98;;;8.18;;
58842;SDS011;44614;54.356;10.100;2023-04-07T06:02:39;14.50;;;7.35;;
58842;SDS011;44614;54.356;10.100;2023-04-07T06:05:05;14.85;;;7.60;;
58842;SDS011;44614;54.356;10.100;2023-04-07T06:07:30;16.77;;;7.35;;
58842;SDS011;44614;54.356;10.100;2023-04-07T06:09:56;12.60;;;7.43;;
58842;SDS011;44614;54.356;10.100;2023-04-07T06:12:22;11.95;;;6.55;;
58842;SDS011;44614;54.356;10.100;2023-04-07T06:14:51;12.13;;;6.50;;
58842;SDS011;44614;54.356;10.100;2023-04-07T06:17:18;16.25;;;7.35;;
58842;SDS011;44614;54.356;10.100;2023-04-07T06:19:44;13.63;;;7.13;;
58842;SDS011;44614;54.356;10.100;2023-04-07T06:22:10;13.52;;;6.97;;
58842;SDS011;44614;54.356;10.100;2023-04-07T06:24:35;10.48;;;6.13;;
58842;SDS011;44614;54.356;10.100;2023-04-07T06:27:01;13.30;;;6.53;;
58842;SDS011;44614;54.356;10.100;2023-04-07T06:29:27;12.63;;;6.90;;
58842;SDS011;44614;54.356;10.100;2023-04-07T06:31:53;12.57;;;6.03;;
58842;SDS011;44614;54.356;10.100;2023-04-07T06:34:19;16.20;;;7.05;;
58842;SDS011;44614;54.356;10.100;2023-04-07T06:36:44;17.20;;;5.97;;
58842;SDS011;44614;54.356;10.100;2023-04-07T06:39:10;9.43;;;4.93;;
58842;SDS011;44614;54.356;10.100;2023-04-07T06:41:35;13.63;;;6.93;;
58842;SDS011;44614;54.356;10.100;2023-04-07T06:44:02;15.48;;;5.45;;
58842;SDS011;44614;54.356;10.100;2023-04-07T06:46:28;10.32;;;5.18;;
58842;SDS011;44614;54.356;10.100;2023-04-07T06:48:53;12.00;;;5.13;;
58842;SDS011;44614;54.356;10.100;2023-04-07T06:51:19;11.18;;;5.68;;
58842;SDS011;44614;54.356;10.100;2023-04-07T06:53:44;14.40;;;7.72;;
58842;SDS011;44614;54.356;10.100;2023-04-07T06:56:12;13.23;;;7.32;;
58842;SDS011;44614;54.356;10.100;2023-04-07T06:58:38;14.38;;;6.53;;
58842;SDS011;44614;54.356;10.100;2023-04-07T07:01:03;15.05;;;6.45;;
58842;SDS011;44614;54.356;10.100;2023-04-07T07:03:30;9.77;;;4.43;;
58842;SDS011;44614;54.356;10.100;2023-04-07T07:05:56;7.63;;;3.85;;
58842;SDS011;44614;54.356;10.100;2023-04-07T07:08:22;14.57;;;4.73;;
58842;SDS011;44614;54.356;10.100;2023-04-07T07:10:48;4.50;;;3.05;;
58842;SDS011;44614;54.356;10.100;2023-04-07T07:13:13;13.57;;;4.75;;
58842;SDS011;44614;54.356;10.100;2023-04-07T07:15:39;8.82;;;3.85;;
58842;SDS011;44614;54.356;10.100;2023-04-07T07:18:04;11.95;;;3.38;;
58842;SDS011;44614;54.356;10.100;2023-04-07T07:20:30;9.40;;;3.58;;
58842;SDS011;44614;54.356;10.100;2023-04-07T07:22:55;7.13;;;3.60;;
58842;SDS011;44614;54.356;10.100;2023-04-07T07:25:20;5.97;;;3.05;;
58842;SDS011;44614;54.356;10.100;2023-04-07T07:27:46;8.50;;;3.33;;
58842;SDS011;44614;54.356;10.100;2023-04-07T07:30:11;7.93;;;3.75;;
58842;SDS011;44614;54.356;10.100;2023-04-07T07:32:37;6.93;;;3.30;;
58842;SDS011;44614;54.356;10.100;2023-04-07T07:35:02;6.93;;;3.43;;
58842;SDS011;44614;54.356;10.100;2023-04-07T07:37:28;10.00;;;3.40;;
58842;SDS011;44614;54.356;10.100;2023-04-07T07:39:53;9.02;;;2.83;;
58842;SDS011;44614;54.356;10.100;2023-04-07T07:42:20;8.68;;;2.78;;
58842;SDS011;44614;54.356;10.100;2023-04-07T07:44:45;4.85;;;2.75;;
58842;SDS011;44614;54.356;10.100;2023-04-07T07:47:10;8.60;;;4.00;;
58842;SDS011;44614;54.356;10.100;2023-04-07T07:49:37;6.35;;;2.83;;
58842;SDS011;44614;54.356;10.100;2023-04-07T07:52:02;6.18;;;3.42;;
58842;SDS011;44614;54.356;10.100;2023-04-07T07:54:28;5.40;;;2.88;;
58842;SDS011;44614;54.356;10.100;2023-04-07T07:56:53;5.17;;;2.60;;
58842;SDS011;44614;54.356;10.100;2023-04-07T07:59:18;5.70;;;2.75;;
58842;SDS011;44614;54.356;10.100;2023-04-07T08:01:43;11.38;;;2.33;;
58842;SDS011;44614;54.356;10.100;2023-04-07T08:04:09;6.40;;;2.60;;
58842;SDS011;44614;54.356;10.100;2023-04-07T08:06:34;7.03;;;3.50;;
58842;SDS011;44614;54.356;10.100;2023-04-07T08:09:01;9.48;;;3.05;;
58842;SDS011;44614;54.356;10.100;2023-04-07T08:11:27;7.00;;;2.95;;
58842;SDS011;44614;54.356;10.100;2023-04-07T08:13:52;7.13;;;2.78;;
58842;SDS011;44614;54.356;10.100;2023-04-07T08:16:18;7.57;;;2.72;;
58842;SDS011;44614;54.356;10.100;2023-04-07T08:18:44;8.00;;;2.78;;
58842;SDS011;44614;54.356;10.100;2023-04-07T08:21:10;3.97;;;2.60;;
58842;SDS011;44614;54.356;10.100;2023-04-07T08:23:36;7.23;;;3.10;;
58842;SDS011;44614;54.356;10.100;2023-04-07T08:26:02;8.40;;;2.90;;
58842;SDS011;44614;54.356;10.100;2023-04-07T08:28:27;5.05;;;2.75;;
58842;SDS011;44614;54.356;10.100;2023-04-07T08:30:52;5.38;;;2.80;;
58842;SDS011;44614;54.356;10.100;2023-04-07T08:33:18;5.97;;;3.33;;
58842;SDS011;44614;54.356;10.100;2023-04-07T08:35:43;7.22;;;3.53;;
58842;SDS011;44614;54.356;10.100;2023-04-07T08:38:08;5.03;;;2.63;;
58842;SDS011;44614;54.356;10.100;2023-04-07T08:40:34;7.40;;;3.53;;
58842;SDS011;44614;54.356;10.100;2023-04-07T08:42:59;5.40;;;2.63;;
58842;SDS011;44614;54.356;10.100;2023-04-07T08:45:27;4.03;;;2.28;;
58842;SDS011;44614;54.356;10.100;2023-04-07T08:47:54;6.40;;;2.55;;
58842;SDS011;44614;54.356;10.100;2023-04-07T08:50:22;6.10;;;3.05;;
58842;SDS011;44614;54.356;10.100;2023-04-07T08:52:55;4.72;;;2.50;;
58842;SDS011;44614;54.356;10.100;2023-04-07T08:55:21;3.75;;;1.98;;
58842;SDS011;44614;54.356;10.100;2023-04-07T08:57:47;7.18;;;2.42;;
58842;SDS011;44614;54.356;10.100;2023-04-07T09:00:13;5.45;;;1.90;;
58842;SDS011;44614;54.356;10.100;2023-04-07T09:02:41;6.18;;;2.25;;
58842;SDS011;44614;54.356;10.100;2023-04-07T09:05:09;6.38;;;2.70;;
58842;SDS011;44614;54.356;10.100;2023-04-07T09:07:35;11.02;;;3.20;;
58842;SDS011;44614;54.356;10.100;2023-04-07T09:10:02;7.47;;;2.40;;
58842;SDS011;44614;54.356;10.100;2023-04-07T09:12:29;4.40;;;1.87;;
58842;SDS011;44614;54.356;10.100;2023-04-07T09:14:55;4.57;;;2.00;;
58842;SDS011;44614;54.356;10.100;2023-04-07T09:17:21;5.00;;;1.92;;
58842;SDS011;44614;54.356;10.100;2023-04-07T09:19:48;2.67;;;1.80;;
58842;SDS011;44614;54.356;10.100;2023-04-07T09:22:18;3.77;;;2.13;;
58842;SDS011;44614;54.356;10.100;2023-04-07T09:30:27;5.40;;;1.95;;
58842;SDS011;44614;54.356;10.100;2023-04-07T09:32:53;4.97;;;1.73;;
58842;SDS011;44614;54.356;10.100;2023-04-07T09:35:20;6.60;;;1.60;;
58842;SDS011;44614;54.356;10.100;2023-04-07T09:38:08;4.70;;;1.70;;
58842;SDS011;44614;54.356;10.100;2023-04-07T09:40:33;2.67;;;1.40;;
58842;SDS011;44614;54.356;10.100;2023-04-07T09:43:01;7.03;;;1.98;;
58842;SDS011;44614;54.356;10.100;2023-04-07T09:47:53;4.10;;;1.92;;
58842;SDS011;44614;54.356;10.100;2023-04-07T09:50:37;5.88;;;1.90;;
58842;SDS011;44614;54.356;10.100;2023-04-07T09:53:05;3.40;;;1.45;;
58842;SDS011;44614;54.356;10.100;2023-04-07T09:55:31;2.35;;;1.00;;
58842;SDS011;44614;54.356;10.100;2023-04-07T09:57:57;6.03;;;2.00;;
58842;SDS011;44614;54.356;10.100;2023-04-07T10:00:24;5.07;;;1.30;;
58842;SDS011;44614;54.356;10.100;2023-04-07T10:02:50;3.20;;;1.42;;
58842;SDS011;44614;54.356;10.100;2023-04-07T10:05:16;2.15;;;1.27;;
58842;SDS011;44614;54.356;10.100;2023-04-07T10:07:45;2.75;;;0.63;;
58842;SDS011;44614;54.356;10.100;2023-04-07T10:10:10;3.35;;;1.60;;
58842;SDS011;44614;54.356;10.100;2023-04-07T10:12:36;8.30;;;1.50;;
58842;SDS011;44614;54.356;10.100;2023-04-07T10:15:02;1.20;;;0.77;;
58842;SDS011;44614;54.356;10.100;2023-04-07T10:17:28;1.70;;;0.93;;
58842;SDS011;44614;54.356;10.100;2023-04-07T10:19:56;1.92;;;1.45;;
58842;SDS011;44614;54.356;10.100;2023-04-07T10:22:23;1.40;;;0.65;;
58842;SDS011;44614;54.356;10.100;2023-04-07T10:27:18;1.37;;;0.83;;
58842;SDS011;44614;54.356;10.100;2023-04-07T10:29:49;2.22;;;0.73;;
58842;SDS011;44614;54.356;10.100;2023-04-07T10:32:16;3.05;;;1.10;;
58842;SDS011;44614;54.356;10.100;2023-04-07T10:37:14;2.63;;;1.10;;
58842;SDS011;44614;54.356;10.100;2023-04-07T10:39:41;1.20;;;0.77;;
58842;SDS011;44614;54.356;10.100;2023-04-07T10:42:43;4.88;;;1.77;;
58842;SDS011;44614;54.356;10.100;2023-04-07T10:45:01;4.53;;;1.35;;
58842;SDS011;44614;54.356;10.100;2023-04-07T10:47:28;3.90;;;1.75;;
58842;SDS011;44614;54.356;10.100;2023-04-07T10:52:40;2.95;;;1.13;;
58842;SDS011;44614;54.356;10.100;2023-04-07T11:03:37;3.42;;;0.70;;
58842;SDS011;44614;54.356;10.100;2023-04-07T11:06:07;2.63;;;0.80;;
58842;SDS011;44614;54.356;10.100;2023-04-07T11:08:40;6.38;;;1.17;;
58842;SDS011;44614;54.356;10.100;2023-04-07T11:11:08;2.55;;;1.48;;
58842;SDS011;44614;54.356;10.100;2023-04-07T11:13:45;1.67;;;1.08;;
58842;SDS011;44614;54.356;10.100;2023-04-07T11:16:15;2.70;;;1.40;;
58842;SDS011;44614;54.356;10.100;2023-04-07T11:18:45;3.78;;;1.77;;
58842;SDS011;44614;54.356;10.100;2023-04-07T11:21:17;2.47;;;0.90;;
58842;SDS011;44614;54.356;10.100;2023-04-07T11:23:44;3.85;;;1.50;;
58842;SDS011;44614;54.356;10.100;2023-04-07T11:26:11;5.65;;;1.58;;
58842;SDS011;44614;54.356;10.100;2023-04-07T11:28:48;3.97;;;1.30;;
58842;SDS011;44614;54.356;10.100;2023-04-07T11:33:51;3.20;;;1.10;;
58842;SDS011;44614;54.356;10.100;2023-04-07T11:36:26;2.80;;;1.23;;
58842;SDS011;44614;54.356;10.100;2023-04-07T11:38:59;1.48;;;1.05;;
58842;SDS011;44614;54.356;10.100;2023-04-07T11:41:26;3.30;;;2.00;;
58842;SDS011;44614;54.356;10.100;2023-04-07T11:44:07;2.30;;;1.20;;
58842;SDS011;44614;54.356;10.100;2023-04-07T11:46:33;5.57;;;1.23;;
58842;SDS011;44614;54.356;10.100;2023-04-07T11:49:09;3.40;;;1.60;;
58842;SDS011;44614;54.356;10.100;2023-04-07T11:51:38;3.95;;;1.48;;
58842;SDS011;44614;54.356;10.100;2023-04-07T11:54:04;3.25;;;1.50;;
58842;SDS011;44614;54.356;10.100;2023-04-07T11:56:29;3.67;;;1.70;;
58842;SDS011;44614;54.356;10.100;2023-04-07T11:59:07;3.17;;;1.08;;
58842;SDS011;44614;54.356;10.100;2023-04-07T12:01:39;2.47;;;1.17;;
58842;SDS011;44614;54.356;10.100;2023-04-07T12:04:11;4.60;;;2.05;;
58842;SDS011;44614;54.356;10.100;2023-04-07T12:06:38;4.10;;;1.67;;
58842;SDS011;44614;54.356;10.100;2023-04-07T12:09:05;3.78;;;1.70;;
58842;SDS011;44614;54.356;10.100;2023-04-07T12:11:31;2.42;;;1.73;;
58842;SDS011;44614;54.356;10.100;2023-04-07T12:13:57;2.88;;;1.50;;
58842;SDS011;44614;54.356;10.100;2023-04-07T12:16:23;2.58;;;1.20;;
58842;SDS011;44614;54.356;10.100;2023-04-07T12:18:50;4.88;;;1.25;;
58842;SDS011;44614;54.356;10.100;2023-04-07T12:21:18;3.38;;;1.58;;
58842;SDS011;44614;54.356;10.100;2023-04-07T12:23:44;2.17;;;1.45;;
58842;SDS011;44614;54.356;10.100;2023-04-07T12:28:37;1.70;;;0.98;;
58842;SDS011;44614;54.356;10.100;2023-04-07T12:31:02;3.33;;;2.08;;
58842;SDS011;44614;54.356;10.100;2023-04-07T12:33:28;1.73;;;1.33;;
58842;SDS011;44614;54.356;10.100;2023-04-07T12:35:54;3.53;;;2.03;;
58842;SDS011;44614;54.356;10.100;2023-04-07T12:38:19;3.15;;;1.83;;
58842;SDS011;44614;54.356;10.100;2023-04-07T12:40:45;2.95;;;1.50;;
58842;SDS011;44614;54.356;10.100;2023-04-07T12:43:11;4.53;;;2.30;;
58842;SDS011;44614;54.356;10.100;2023-04-07T12:45:36;4.50;;;1.73;;
58842;SDS011;44614;54.356;10.100;2023-04-07T12:48:01;3.30;;;1.63;;
58842;SDS011;44614;54.356;10.100;2023-04-07T12:50:27;3.55;;;1.55;;
58842;SDS011;44614;54.356;10.100;2023-04-07T12:52:53;3.65;;;1.83;;
58842;SDS011;44614;54.356;10.100;2023-04-07T12:55:19;3.47;;;2.10;;
58842;SDS011;44614;54.356;10.100;2023-04-07T12:57:44;1.50;;;1.27;;
58842;SDS011;44614;54.356;10.100;2023-04-07T13:00:10;4.65;;;1.85;;
58842;SDS011;44614;54.356;10.100;2023-04-07T13:02:35;3.30;;;1.73;;
58842;SDS011;44614;54.356;10.100;2023-04-07T13:05:01;2.58;;;1.75;;
58842;SDS011;44614;54.356;10.100;2023-04-07T13:07:27;3.55;;;1.52;;
58842;SDS011;44614;54.356;10.100;2023-04-07T13:09:52;5.03;;;2.15;;
58842;SDS011;44614;54.356;10.100;2023-04-07T13:12:18;3.00;;;1.65;;
58842;SDS011;44614;54.356;10.100;2023-04-07T13:14:44;3.63;;;2.05;;
58842;SDS011;44614;54.356;10.100;2023-04-07T13:17:09;3.33;;;1.67;;
58842;SDS011;44614;54.356;10.100;2023-04-07T13:19:35;4.97;;;2.38;;
58842;SDS011;44614;54.356;10.100;2023-04-07T13:22:00;3.97;;;2.10;;
58842;SDS011;44614;54.356;10.100;2023-04-07T13:24:26;3.22;;;2.22;;
58842;SDS011;44614;54.356;10.100;2023-04-07T13:26:52;3.47;;;2.03;;
58842;SDS011;44614;54.356;10.100;2023-04-07T13:29:18;5.55;;;2.55;;
58842;SDS011;44614;54.356;10.100;2023-04-07T13:31:45;8.63;;;2.15;;
58842;SDS011;44614;54.356;10.100;2023-04-07T13:34:10;6.20;;;2.85;;
58842;SDS011;44614;54.356;10.100;2023-04-07T13:36:37;3.88;;;2.13;;
58842;SDS011;44614;54.356;10.100;2023-04-07T13:39:03;3.65;;;2.10;;
58842;SDS011;44614;54.356;10.100;2023-04-07T13:41:28;4.85;;;2.78;;
58842;SDS011;44614;54.356;10.100;2023-04-07T13:43:53;5.32;;;2.70;;
58842;SDS011;44614;54.356;10.100;2023-04-07T13:46:19;7.40;;;2.05;;
58842;SDS011;44614;54.356;10.100;2023-04-07T13:48:45;4.10;;;2.95;;
58842;SDS011;44614;54.356;10.100;2023-04-07T13:51:10;4.25;;;2.50;;
58842;SDS011;44614;54.356;10.100;2023-04-07T13:53:36;4.80;;;2.65;;
58842;SDS011;44614;54.356;10.100;2023-04-07T13:56:01;6.05;;;2.33;;
58842;SDS011;44614;54.356;10.100;2023-04-07T13:58:27;4.93;;;2.20;;
58842;SDS011;44614;54.356;10.100;2023-04-07T14:00:53;4.53;;;2.17;;
58842;SDS011;44614;54.356;10.100;2023-04-07T14:03:19;8.73;;;2.47;;
58842;SDS011;44614;54.356;10.100;2023-04-07T14:05:44;5.63;;;2.33;;
58842;SDS011;44614;54.356;10.100;2023-04-07T14:08:10;3.22;;;1.73;;
58842;SDS011;44614;54.356;10.100;2023-04-07T14:10:35;4.78;;;2.20;;
58842;SDS011;44614;54.356;10.100;2023-04-07T14:13:00;5.90;;;2.28;;
58842;SDS011;44614;54.356;10.100;2023-04-07T14:15:26;3.45;;;2.20;;
58842;SDS011;44614;54.356;10.100;2023-04-07T14:17:51;6.07;;;2.45;;
58842;SDS011;44614;54.356;10.100;2023-04-07T14:20:17;3.22;;;2.20;;
58842;SDS011;44614;54.356;10.100;2023-04-07T14:22:42;4.78;;;1.98;;
58842;SDS011;44614;54.356;10.100;2023-04-07T14:25:08;4.90;;;2.25;;
58842;SDS011;44614;54.356;10.100;2023-04-07T14:27:35;5.05;;;2.28;;
58842;SDS011;44614;54.356;10.100;2023-04-07T14:30:01;5.47;;;2.55;;
58842;SDS011;44614;54.356;10.100;2023-04-07T14:32:27;5.20;;;2.05;;
58842;SDS011;44614;54.356;10.100;2023-04-07T14:34:53;2.13;;;1.58;;
58842;SDS011;44614;54.356;10.100;2023-04-07T14:37:19;4.00;;;2.20;;
58842;SDS011;44614;54.356;10.100;2023-04-07T14:39:48;2.67;;;1.60;;
58842;SDS011;44614;54.356;10.100;2023-04-07T14:42:13;2.22;;;1.55;;
58842;SDS011;44614;54.356;10.100;2023-04-07T14:44:40;3.42;;;1.63;;
58842;SDS011;44614;54.356;10.100;2023-04-07T14:47:05;6.00;;;2.40;;
58842;SDS011;44614;54.356;10.100;2023-04-07T14:49:31;3.33;;;1.77;;
58842;SDS011;44614;54.356;10.100;2023-04-07T14:51:56;2.25;;;1.48;;
58842;SDS011;44614;54.356;10.100;2023-04-07T14:54:22;4.90;;;1.83;;
58842;SDS011;44614;54.356;10.100;2023-04-07T14:56:48;3.78;;;1.85;;
58842;SDS011;44614;54.356;10.100;2023-04-07T14:59:13;4.45;;;1.77;;
58842;SDS011;44614;54.356;10.100;2023-04-07T15:01:39;4.60;;;1.73;;
58842;SDS011;44614;54.356;10.100;2023-04-07T15:04:04;4.18;;;1.75;;
58842;SDS011;44614;54.356;10.100;2023-04-07T15:06:29;3.63;;;1.88;;
58842;SDS011;44614;54.356;10.100;2023-04-07T15:08:56;4.20;;;2.28;;